Time;durP1;ratioP1;P1;durP2;ratioP2;P2;SDS_P1;SDS_P2;PMS_P1;PMS_P2;Temp;Humidity;BMP_temperature;BMP_pressure;BME280_temperature;BME280_humidity;BME280_pressure;Samples;Min_cycle;Max_cycle;Signal;HPM_P1;HPM_P2
2022/12/15 00:40:11;;;;;;;38.70;14.90;;;-6.20;82.30;;;;;;4987210;28;20049;-67
2022/12/15 00:42:37;;;;;;;37.47;14.55;;;-6.30;82.60;;;;;;4990881;28;20026;-67
2022/12/15 00:45:03;;;;;;;35.10;14.95;;;-6.30;82.80;;;;;;4989163;28;20034;-67
2022/12/15 00:47:31;;;;;;;37.63;15.00;;;-6.30;82.10;;;;;;4992733;28;20030;-67
2022/12/15 01:20:13;;;;;;;36.97;15.90;;;-6.70;84.80;;;;;;4991098;28;20067;-67
2022/12/15 01:22:39;;;;;;;39.30;17.02;;;-6.60;86.40;;;;;;4988653;28;20057;-67
2022/12/15 01:25:06;;;;;;;33.83;15.50;;;-6.60;87.90;;;;;;4990542;28;20224;-67
2022/12/15 01:27:33;;;;;;;37.67;15.70;;;-6.50;89.00;;;;;;4990368;28;20061;-67
2022/12/15 01:29:59;;;;;;;39.10;15.52;;;-6.40;89.50;;;;;;4989104;28;20121;-67
2022/12/15 01:32:26;;;;;;;36.13;14.52;;;-6.30;89.80;;;;;;4993430;28;20129;-67
2022/12/15 01:34:52;;;;;;;36.90;15.90;;;-6.20;90.00;;;;;;4988287;28;20042;-67
2022/12/15 01:37:19;;;;;;;42.85;15.43;;;-6.20;90.00;;;;;;4986266;28;20046;-67
2022/12/15 01:42:29;;;;;;;38.05;14.18;;;-6.10;87.50;;;;;;4986965;28;20048;-67
2022/12/15 01:45:30;;;;;;;32.95;13.63;;;-6.20;85.90;;;;;;4991938;28;20088;-67
2022/12/15 01:48:06;;;;;;;36.53;14.50;;;-6.20;86.10;;;;;;4992075;28;20046;-67
2022/12/15 01:50:34;;;;;;;;;;;-6.20;86.90;;;;;;4992015;28;20069;-67
2022/12/15 01:53:02;;;;;;;42.60;14.85;;;-6.20;87.40;;;;;;4990639;28;19961;-67
2022/12/15 01:55:29;;;;;;;39.33;14.85;;;-6.20;87.40;;;;;;4983733;28;20034;-66
2022/12/15 01:58:02;;;;;;;40.22;15.45;;;-6.30;87.20;;;;;;4987976;28;20480;-67
2022/12/15 02:00:29;;;;;;;36.05;14.75;;;-6.20;87.60;;;;;;4987981;28;20030;-67
2022/12/15 02:02:57;;;;;;;34.03;14.32;;;-6.20;87.00;;;;;;4993654;28;20833;-67
2022/12/15 02:05:23;;;;;;;38.00;14.95;;;-6.20;87.40;;;;;;4988127;28;20057;-67
2022/12/15 02:07:49;;;;;;;37.58;15.95;;;-6.10;87.90;;;;;;4991985;28;20031;-67
2022/12/15 02:10:16;;;;;;;47.05;18.20;;;-6.10;88.10;;;;;;4994483;28;20045;-67
2022/12/15 02:12:41;;;;;;;40.35;15.98;;;-6.00;87.80;;;;;;4990457;28;20054;-67
2022/12/15 02:15:10;;;;;;;36.08;15.20;;;-6.10;87.00;;;;;;4986663;28;20103;-67
2022/12/15 02:18:01;;;;;;;38.67;13.75;;;-6.10;87.00;;;;;;4991597;28;20034;-67
2022/12/15 02:21:05;;;;;;;40.33;15.30;;;-6.10;87.60;;;;;;4990864;28;20034;-67
2022/12/15 02:24:02;;;;;;;35.83;14.15;;;-6.10;87.60;;;;;;4997163;28;20564;-67
2022/12/15 02:26:50;;;;;;;37.60;14.80;;;-6.00;87.60;;;;;;4996004;28;20065;-67
2022/12/15 02:29:24;;;;;;;34.78;13.02;;;-6.00;87.40;;;;;;4992879;28;20047;-67
2022/12/15 02:31:50;;;;;;;28.80;13.07;;;-6.00;87.20;;;;;;4991109;28;20042;-67
2022/12/15 02:34:31;;;;;;;38.60;15.63;;;-5.90;87.40;;;;;;4987638;28;20091;-67
2022/12/15 02:37:19;;;;;;;31.40;14.02;;;-5.80;86.90;;;;;;4994956;28;20034;-67
2022/12/15 02:39:45;;;;;;;37.67;14.85;;;-5.80;86.20;;;;;;4991400;28;20518;-67
2022/12/15 02:42:11;;;;;;;39.13;13.77;;;-5.80;84.40;;;;;;4996974;28;20038;-67
2022/12/15 02:44:47;;;;;;;34.10;14.43;;;-5.80;84.20;;;;;;4992252;28;20038;-67
2022/12/15 02:47:27;;;;;;;31.38;14.15;;;-5.70;84.50;;;;;;4994297;28;20037;-67
2022/12/15 02:49:53;;;;;;;41.53;14.18;;;-5.70;84.20;;;;;;4991832;28;20121;-67
2022/12/15 02:52:39;;;;;;;31.52;12.93;;;-5.70;84.20;;;;;;4986987;28;20038;-67
2022/12/15 02:55:26;;;;;;;37.90;14.85;;;-5.70;84.60;;;;;;4996660;28;20033;-67
2022/12/15 02:57:54;;;;;;;;;;;-5.70;84.90;;;;;;4990439;28;20073;-67
2022/12/15 03:00:21;;;;;;;31.83;12.80;;;-5.60;84.70;;;;;;4998750;28;20636;-67
2022/12/15 03:02:50;;;;;;;33.97;13.35;;;-5.60;84.80;;;;;;4990114;28;20097;-67
2022/12/15 03:05:19;;;;;;;38.90;14.00;;;-5.60;85.30;;;;;;4993219;28;20535;-68
2022/12/15 03:07:47;;;;;;;32.03;13.57;;;-5.60;85.90;;;;;;4992470;28;20789;-67
2022/12/15 03:10:14;;;;;;;41.45;15.68;;;-5.50;87.00;;;;;;4987761;28;20026;-67
2022/12/15 03:12:40;;;;;;;47.10;19.08;;;-5.40;87.70;;;;;;4988659;28;20049;-67
2022/12/15 03:15:06;;;;;;;42.35;16.77;;;-5.40;88.20;;;;;;4993722;28;20656;-67
2022/12/15 03:17:32;;;;;;;41.92;14.70;;;-5.40;88.10;;;;;;4990469;28;20070;-67
2022/12/15 03:19:58;;;;;;;30.15;11.88;;;-5.40;88.70;;;;;;4992001;28;20897;-67
2022/12/15 03:22:24;;;;;;;39.88;15.60;;;-5.40;88.50;;;;;;4992718;28;20038;-67
2022/12/15 03:24:49;;;;;;;37.92;17.85;;;-5.40;89.00;;;;;;4992372;28;20045;-67
2022/12/15 03:27:15;;;;;;;49.53;19.30;;;-5.30;89.20;;;;;;4995143;28;20042;-67
2022/12/15 03:29:41;;;;;;;54.13;25.98;;;-5.30;89.20;;;;;;4985753;28;20553;-67
2022/12/15 03:32:07;;;;;;;45.95;19.90;;;-5.30;89.50;;;;;;4993975;28;20069;-67
2022/12/15 03:34:33;;;;;;;36.40;15.25;;;-5.30;90.00;;;;;;4992054;28;20247;-67
2022/12/15 03:36:58;;;;;;;34.53;14.40;;;-5.30;90.00;;;;;;4991993;28;20502;-66
2022/12/15 03:39:24;;;;;;;39.72;15.63;;;-5.20;89.90;;;;;;4993605;28;20034;-69
2022/12/15 03:41:50;;;;;;;46.53;17.67;;;-5.20;88.50;;;;;;4991562;28;20522;-67
2022/12/15 03:44:16;;;;;;;42.65;18.25;;;-5.20;88.00;;;;;;5020241;28;20074;-67
2022/12/15 03:46:41;;;;;;;47.78;19.30;;;-5.20;89.00;;;;;;4989882;28;20695;-67
2022/12/15 03:49:07;;;;;;;79.55;26.63;;;-5.30;89.80;;;;;;4984973;28;20034;-66
2022/12/15 03:51:33;;;;;;;57.55;18.95;;;-5.40;90.60;;;;;;4996932;28;20061;-67
2022/12/15 03:53:59;;;;;;;77.82;26.25;;;-5.60;91.30;;;;;;4990393;28;20197;-67
2022/12/15 03:56:25;;;;;;;43.83;14.88;;;-5.70;91.70;;;;;;4992593;28;20475;-67
2022/12/15 03:58:51;;;;;;;47.58;14.10;;;-5.70;92.00;;;;;;4988984;28;20910;-67
2022/12/15 04:01:19;;;;;;;44.70;15.63;;;-5.80;92.20;;;;;;5021266;28;20045;-67
2022/12/15 04:03:45;;;;;;;40.22;14.43;;;-5.80;92.40;;;;;;4991385;28;20034;-67
2022/12/15 04:06:11;;;;;;;46.92;15.05;;;-5.80;92.50;;;;;;4988258;28;20034;-67
2022/12/15 04:08:37;;;;;;;39.92;15.63;;;-5.80;92.40;;;;;;4995697;28;20536;-67
2022/12/15 04:11:03;;;;;;;49.22;18.85;;;-5.70;92.60;;;;;;4990153;28;20446;-67
2022/12/15 04:13:29;;;;;;;41.67;16.90;;;-5.70;92.60;;;;;;4991172;28;20145;-67
2022/12/15 04:15:54;;;;;;;41.70;15.45;;;-5.60;92.60;;;;;;4995572;28;20503;-67
2022/12/15 04:18:21;;;;;;;55.22;18.02;;;-5.50;92.40;;;;;;4990315;28;20042;-67
2022/12/15 04:20:47;;;;;;;53.42;19.67;;;-5.40;92.30;;;;;;4991845;28;20034;-67
2022/12/15 04:23:13;;;;;;;48.08;18.10;;;-5.40;91.90;;;;;;4990645;28;20038;-68
2022/12/15 05:33:05;;;;;;;35.53;13.98;;;-5.80;88.40;;;;;;4991477;28;20367;-67
2022/12/15 05:35:30;;;;;;;37.33;14.95;;;-5.90;87.30;;;;;;4991400;28;20042;-67
2022/12/15 05:37:56;;;;;;;33.53;14.77;;;-5.90;87.50;;;;;;4990751;28;20049;-67
2022/12/15 05:40:22;;;;;;;44.03;14.57;;;-5.90;87.60;;;;;;4990017;28;20034;-67
2022/12/15 05:42:47;;;;;;;36.63;13.90;;;-5.90;87.70;;;;;;4986694;28;20041;-67
2022/12/15 05:45:13;;;;;;;36.13;14.30;;;-6.00;87.80;;;;;;4998560;28;20036;-67
2022/12/15 05:47:39;;;;;;;35.03;13.73;;;-5.90;87.70;;;;;;4995635;28;20046;-67
2022/12/15 05:50:06;;;;;;;36.20;15.00;;;-5.90;87.50;;;;;;4999204;28;20042;-67
2022/12/15 05:52:31;;;;;;;40.30;15.05;;;-5.90;87.10;;;;;;4994123;28;20048;-67
2022/12/15 05:54:57;;;;;;;35.30;13.95;;;-6.00;87.50;;;;;;4995824;28;20894;-67
2022/12/15 05:57:23;;;;;;;32.90;13.55;;;-6.00;87.00;;;;;;4995837;28;20049;-67
2022/12/15 05:59:49;;;;;;;38.65;15.00;;;-6.00;87.10;;;;;;4989679;28;20093;-67
2022/12/15 06:02:15;;;;;;;34.50;14.15;;;-6.00;87.10;;;;;;4988256;28;20038;-67
2022/12/15 06:04:40;;;;;;;36.78;14.38;;;-6.10;87.40;;;;;;4997051;28;20121;-67
2022/12/15 06:07:06;;;;;;;34.72;13.57;;;-6.00;87.50;;;;;;4988022;28;20073;-67
2022/12/15 06:09:32;;;;;;;33.55;13.10;;;-6.10;87.20;;;;;;5000893;28;20037;-67
2022/12/15 06:11:58;;;;;;;33.30;13.98;;;-6.00;87.20;;;;;;4988870;28;20045;-67
2022/12/15 06:14:23;;;;;;;31.23;13.73;;;-6.10;86.90;;;;;;4992615;28;20042;-67
2022/12/15 06:16:49;;;;;;;31.40;13.65;;;-6.00;86.60;;;;;;4988281;28;20038;-67
2022/12/15 06:19:15;;;;;;;30.17;12.45;;;-6.00;86.30;;;;;;4990670;28;20096;-67
2022/12/15 06:21:41;;;;;;;37.22;13.63;;;-6.10;86.40;;;;;;4985219;28;20380;-68
2022/12/15 06:24:07;;;;;;;38.08;13.52;;;-6.10;86.00;;;;;;4990750;28;20375;-67
2022/12/15 06:26:36;;;;;;;32.55;13.73;;;-6.10;85.10;;;;;;4990376;28;20104;-67
2022/12/15 06:29:03;;;;;;;36.88;14.52;;;-6.20;84.70;;;;;;4990915;28;20490;-67
2022/12/15 06:31:30;;;;;;;33.90;13.20;;;-6.20;84.10;;;;;;4990910;28;20125;-67
2022/12/15 06:33:57;;;;;;;32.28;13.75;;;-6.30;83.60;;;;;;4988407;28;20562;-67
2022/12/15 06:36:23;;;;;;;35.40;14.32;;;-6.30;82.50;;;;;;4990845;28;20900;-67
2022/12/15 06:38:50;;;;;;;39.70;14.50;;;-6.30;81.80;;;;;;4993683;28;20054;-67
2022/12/15 06:41:18;;;;;;;36.35;13.85;;;-6.40;81.70;;;;;;4992670;28;20034;-68
2022/12/15 06:43:51;;;;;;;36.08;14.35;;;-6.50;82.40;;;;;;4988973;28;20038;-67
2022/12/15 06:46:17;;;;;;;32.47;13.30;;;-6.60;82.30;;;;;;4990470;28;20043;-67
2022/12/15 06:48:45;;;;;;;38.55;14.25;;;-6.70;82.60;;;;;;4986959;28;20395;-67
2022/12/15 06:51:12;;;;;;;32.75;13.10;;;-6.80;82.50;;;;;;4989760;28;20427;-67
2022/12/15 06:53:40;;;;;;;28.27;12.35;;;-6.80;82.00;;;;;;4991197;28;20077;-67
2022/12/15 06:56:20;;;;;;;33.65;12.93;;;-6.80;82.30;;;;;;4996223;28;20030;-67
2022/12/15 06:58:50;;;;;;;32.30;13.30;;;-6.90;82.70;;;;;;4991436;28;20065;-67
2022/12/15 07:01:18;;;;;;;36.80;14.38;;;-6.90;83.10;;;;;;4993253;28;20065;-67
2022/12/15 07:03:44;;;;;;;35.00;13.35;;;-6.90;83.00;;;;;;4991232;28;20033;-67
2022/12/15 07:06:11;;;;;;;35.40;13.07;;;-6.90;83.00;;;;;;4984439;28;20824;-67
2022/12/15 07:08:38;;;;;;;31.55;12.25;;;-7.00;83.40;;;;;;4995989;28;20120;-66
2022/12/15 07:11:05;;;;;;;27.67;13.15;;;-6.90;83.30;;;;;;4988544;28;20803;-67
2022/12/15 07:13:31;;;;;;;36.53;13.05;;;-7.00;83.00;;;;;;4987707;28;20026;-67
2022/12/15 07:16:01;;;;;;;30.02;12.70;;;-7.00;83.30;;;;;;4986531;28;20053;-67
2022/12/15 07:18:28;;;;;;;33.33;13.18;;;-7.00;83.70;;;;;;4985313;28;20056;-67
2022/12/15 07:20:55;;;;;;;34.22;13.88;;;-7.10;83.30;;;;;;4992075;28;20108;-67
2022/12/15 07:23:21;;;;;;;27.98;12.30;;;-7.10;83.70;;;;;;4987498;28;20026;-67
2022/12/15 07:25:46;;;;;;;30.67;11.60;;;-7.10;83.40;;;;;;4988700;28;20042;-67
2022/12/15 07:28:12;;;;;;;34.47;12.98;;;-7.10;83.80;;;;;;4993928;28;20085;-67
2022/12/15 07:30:38;;;;;;;34.97;12.60;;;-7.00;84.10;;;;;;4989110;28;20574;-67
2022/12/15 07:33:04;;;;;;;28.05;11.93;;;-7.00;83.60;;;;;;4987713;28;20121;-66
2022/12/15 07:35:31;;;;;;;30.98;12.32;;;-7.00;83.60;;;;;;4989309;28;20038;-67
2022/12/15 07:37:57;;;;;;;28.17;12.15;;;-7.10;83.90;;;;;;4990614;28;20096;-67
2022/12/15 07:40:23;;;;;;;28.00;12.02;;;-7.00;83.90;;;;;;4989280;28;20148;-67
2022/12/15 07:42:49;;;;;;;36.72;11.85;;;-7.00;84.10;;;;;;4991360;28;20614;-68
2022/12/15 07:45:14;;;;;;;29.35;12.43;;;-6.90;83.80;;;;;;4993047;28;20040;-67
2022/12/15 07:47:40;;;;;;;25.73;12.52;;;-6.90;84.10;;;;;;4987858;28;20030;-68
2022/12/15 07:50:07;;;;;;;33.95;13.25;;;-6.80;83.90;;;;;;4992871;28;20042;-67
2022/12/15 07:52:33;;;;;;;38.75;14.65;;;-6.80;84.10;;;;;;4988962;28;20057;-69
2022/12/15 07:54:59;;;;;;;37.90;13.80;;;-6.80;84.20;;;;;;4991307;28;20406;-68
2022/12/15 07:57:25;;;;;;;32.97;11.60;;;-6.80;84.40;;;;;;4981485;28;20042;-67
2022/12/15 07:59:50;;;;;;;32.03;13.48;;;-6.70;84.60;;;;;;4988230;28;20030;-68
2022/12/15 08:02:16;;;;;;;34.55;13.60;;;-6.70;84.70;;;;;;4987999;28;20026;-69
2022/12/15 08:04:42;;;;;;;33.38;12.85;;;-6.70;85.00;;;;;;4986119;28;20033;-69
2022/12/15 08:07:09;;;;;;;30.10;13.55;;;-6.60;85.10;;;;;;4987900;28;20589;-66
2022/12/15 08:09:36;;;;;;;32.60;13.93;;;-6.50;84.90;;;;;;4984916;28;20039;-68
2022/12/15 08:12:02;;;;;;;28.30;12.20;;;-6.40;85.30;;;;;;4987311;28;20037;-67
2022/12/15 08:14:28;;;;;;;36.53;13.45;;;-6.30;85.40;;;;;;4992263;28;20038;-67
2022/12/15 08:16:54;;;;;;;32.92;12.13;;;-6.20;85.70;;;;;;4989282;28;20044;-64
2022/12/15 08:19:20;;;;;;;27.63;13.38;;;-6.00;85.50;;;;;;4987021;28;20026;-64
2022/12/15 08:21:47;;;;;;;34.10;13.43;;;-5.70;85.50;;;;;;4985985;28;20092;-65
2022/12/15 08:24:13;;;;;;;31.55;13.15;;;-5.20;84.90;;;;;;4992037;28;20081;-65
2022/12/15 08:26:41;;;;;;;30.58;13.35;;;-4.60;83.30;;;;;;4992382;28;20118;-65
2022/12/15 08:29:10;;;;;;;32.38;12.35;;;-4.20;82.30;;;;;;4989387;28;20643;-65
2022/12/15 08:31:36;;;;;;;30.70;12.93;;;-4.00;81.10;;;;;;4997390;28;20038;-65
2022/12/15 08:34:03;;;;;;;32.20;13.13;;;-4.10;80.60;;;;;;4984554;28;20044;-65
2022/12/15 08:36:30;;;;;;;38.63;14.45;;;-4.20;80.30;;;;;;4988325;28;20038;-64
2022/12/15 08:38:58;;;;;;;35.25;14.00;;;-4.30;81.40;;;;;;4986925;28;20061;-64
2022/12/15 08:41:27;;;;;;;32.90;13.20;;;-4.30;81.60;;;;;;4986644;28;20094;-68
2022/12/15 08:43:54;;;;;;;35.08;13.77;;;-4.30;82.30;;;;;;4989354;28;20117;-65
2022/12/15 08:46:26;;;;;;;34.25;14.75;;;-4.40;83.10;;;;;;4987635;28;20041;-69
2022/12/15 08:48:53;;;;;;;34.47;14.27;;;-4.30;83.80;;;;;;4990996;28;20171;-65
2022/12/15 08:51:20;;;;;;;31.33;14.15;;;-4.20;84.00;;;;;;4985446;28;20988;-65
2022/12/15 08:53:46;;;;;;;34.78;13.95;;;-4.10;83.90;;;;;;4986515;28;20423;-65
2022/12/15 08:56:14;;;;;;;33.20;13.48;;;-3.90;83.50;;;;;;4989090;28;20121;-65
2022/12/15 08:58:40;;;;;;;33.00;13.30;;;-3.80;84.10;;;;;;4988961;28;20104;-65
2022/12/15 09:01:10;;;;;;;36.78;15.23;;;-3.50;83.90;;;;;;4994421;28;20034;-65
2022/12/15 09:03:36;;;;;;;41.70;17.17;;;-2.80;82.80;;;;;;4988903;28;20058;-65
2022/12/15 09:06:03;;;;;;;34.33;16.35;;;-1.70;79.50;;;;;;4987477;28;20077;-68
2022/12/15 09:08:29;;;;;;;53.10;20.17;;;-0.40;73.80;;;;;;4986921;28;20691;-65
2022/12/15 09:10:59;;;;;;;30.73;13.73;;;0.70;68.60;;;;;;4985562;28;20058;-66
2022/12/15 09:13:26;;;;;;;29.17;13.88;;;1.40;64.80;;;;;;4988272;28;20245;-67
2022/12/15 09:16:00;;;;;;;33.42;14.52;;;1.80;62.70;;;;;;4985919;28;20061;-66
2022/12/15 09:18:26;;;;;;;36.15;15.13;;;2.30;61.80;;;;;;4987107;28;20377;-66
2022/12/15 09:20:53;;;;;;;29.67;14.27;;;2.50;60.20;;;;;;4988891;28;20030;-66
2022/12/15 09:23:20;;;;;;;38.50;14.90;;;2.30;59.80;;;;;;4987320;28;20058;-66
2022/12/15 09:25:46;;;;;;;34.33;14.60;;;2.00;61.20;;;;;;4987480;28;20734;-66
2022/12/15 09:28:13;;;;;;;33.92;15.32;;;1.40;62.80;;;;;;4988363;28;20045;-66
2022/12/15 09:30:40;;;;;;;33.83;14.15;;;1.00;64.50;;;;;;4980674;28;20061;-66
2022/12/15 09:33:06;;;;;;;30.17;13.35;;;0.60;65.70;;;;;;4987340;28;20026;-66
2022/12/15 09:35:31;;;;;;;34.97;15.85;;;0.20;67.70;;;;;;4991269;28;20029;-65
2022/12/15 09:37:57;;;;;;;29.15;13.90;;;-0.10;69.80;;;;;;4990982;28;20038;-65
2022/12/15 09:40:24;;;;;;;30.73;13.75;;;-0.50;70.70;;;;;;4989136;28;20145;-66
2022/12/15 09:42:55;;;;;;;35.85;15.23;;;-0.70;72.60;;;;;;4985425;28;20034;-66
2022/12/15 09:45:25;;;;;;;30.55;14.32;;;-1.00;74.10;;;;;;4989172;28;20093;-66
2022/12/15 09:48:05;;;;;;;32.88;14.23;;;-1.00;75.50;;;;;;4985966;28;20481;-65
2022/12/15 09:50:37;;;;;;;34.03;14.15;;;-1.00;76.80;;;;;;4987877;28;20035;-65
2022/12/15 09:53:09;;;;;;;31.10;13.93;;;-0.90;75.10;;;;;;4989848;28;20038;-66
2022/12/15 09:55:35;;;;;;;36.20;14.82;;;-0.90;76.20;;;;;;4986566;28;20128;-66
2022/12/15 09:58:13;;;;;;;28.58;13.98;;;-0.80;76.70;;;;;;4988374;28;20041;-65
2022/12/15 10:00:50;;;;;;;30.00;13.80;;;-0.50;76.10;;;;;;4989827;28;20035;-65
2022/12/15 10:03:49;;;;;;;35.50;14.82;;;-0.30;76.00;;;;;;4991292;28;20445;-66
2022/12/15 10:06:50;;;;;;;28.83;14.35;;;-0.20;75.70;;;;;;4992181;28;20085;-66
2022/12/15 10:09:25;;;;;;;31.02;13.80;;;-0.20;75.80;;;;;;5017198;28;20917;-64
2022/12/15 10:11:59;;;;;;;37.17;14.73;;;-0.30;76.40;;;;;;4989619;28;20041;-65
2022/12/15 10:14:33;;;;;;;25.17;13.00;;;-0.40;77.40;;;;;;4987811;28;20041;-66
2022/12/15 10:17:26;;;;;;;34.00;14.45;;;-0.60;77.70;;;;;;4987013;28;20031;-65
2022/12/15 10:20:06;;;;;;;31.98;13.50;;;-0.60;78.90;;;;;;4988356;28;20038;-66
2022/12/15 10:22:35;;;;;;;34.70;15.25;;;-0.70;79.00;;;;;;4989218;28;20026;-65
2022/12/15 10:25:23;;;;;;;33.15;14.00;;;-0.70;79.20;;;;;;4985973;28;20509;-65
2022/12/15 10:28:07;;;;;;;30.92;14.13;;;-0.40;80.70;;;;;;4986506;28;20042;-65
2022/12/15 10:30:34;;;;;;;34.17;14.85;;;1.40;75.70;;;;;;4993239;28;20065;-65
2022/12/15 10:33:19;;;;;;;36.55;16.08;;;3.90;67.20;;;;;;4995068;28;20473;-66
2022/12/15 10:35:46;;;;;;;34.58;14.93;;;5.90;57.60;;;;;;4989494;28;20565;-67
2022/12/15 10:38:24;;;;;;;34.42;15.98;;;7.10;53.50;;;;;;4991537;28;20066;-69
2022/12/15 10:41:02;;;;;;;30.52;14.13;;;8.10;50.70;;;;;;4991002;28;20026;-67
2022/12/15 10:43:45;;;;;;;33.83;14.95;;;8.70;48.90;;;;;;4990235;28;20034;-68
2022/12/15 10:46:17;;;;;;;33.97;14.80;;;8.70;48.60;;;;;;4992291;28;20034;-68
2022/12/15 10:48:47;;;;;;;36.38;15.90;;;7.80;50.30;;;;;;4988490;28;20926;-67
2022/12/15 10:51:15;;;;;;;33.00;14.38;;;6.60;52.60;;;;;;4987692;28;20042;-69
2022/12/15 10:53:53;;;;;;;33.67;14.75;;;6.70;53.20;;;;;;4996117;28;20034;-67
2022/12/15 10:56:23;;;;;;;38.50;15.45;;;8.10;50.50;;;;;;4988834;28;20049;-67
2022/12/15 10:58:58;;;;;;;37.15;15.30;;;9.40;46.10;;;;;;4993229;28;20046;-68
2022/12/15 11:01:27;;;;;;;41.25;15.60;;;9.60;45.80;;;;;;4989522;28;20034;-67
2022/12/15 11:03:53;;;;;;;36.20;16.23;;;10.10;44.50;;;;;;4986995;28;20066;-68
2022/12/15 11:06:30;;;;;;;36.08;16.27;;;10.30;43.70;;;;;;4986059;28;20042;-68
2022/12/15 11:09:07;;;;;;;36.63;16.88;;;10.70;43.50;;;;;;4988972;28;20158;-69
2022/12/15 11:14:46;;;;;;;36.33;15.43;;;9.20;45.20;;;;;;4993418;28;20042;-67
2022/12/15 11:17:18;;;;;;;35.83;16.70;;;6.60;50.40;;;;;;4990988;28;20703;-68
2022/12/15 11:19:44;;;;;;;30.48;14.77;;;4.90;55.70;;;;;;4988248;28;20031;-69
2022/12/15 11:22:34;;;;;;;36.00;15.90;;;3.70;59.60;;;;;;4986278;28;20628;-69
2022/12/15 11:25:09;;;;;;;34.15;16.15;;;3.00;63.70;;;;;;4983431;28;20720;-68
2022/12/15 11:27:42;;;;;;;35.25;15.98;;;2.60;66.30;;;;;;4989078;28;20037;-70
2022/12/15 11:30:17;;;;;;;39.03;15.82;;;2.30;67.80;;;;;;4987117;28;20029;-66
2022/12/15 11:32:50;;;;;;;32.63;14.50;;;2.10;68.40;;;;;;4991794;28;20454;-66
2022/12/15 11:35:21;;;;;;;30.80;13.65;;;2.00;69.80;;;;;;4987430;28;20099;-67
2022/12/15 11:37:50;;;;;;;33.08;14.95;;;1.90;70.30;;;;;;4993391;28;20119;-67
2022/12/15 11:40:29;;;;;;;33.05;15.27;;;1.70;71.00;;;;;;5021161;28;20040;-67
2022/12/15 11:43:13;;;;;;;33.28;15.90;;;1.70;72.50;;;;;;4987279;28;20029;-68
2022/12/15 11:45:48;;;;;;;36.97;15.43;;;1.60;72.80;;;;;;4988566;28;20096;-69
2022/12/15 11:48:41;;;;;;;32.90;15.88;;;1.60;73.60;;;;;;4985561;28;20049;-68
2022/12/15 11:51:45;;;;;;;31.63;14.95;;;1.50;74.00;;;;;;4984978;28;20040;-67
2022/12/15 11:54:32;;;;;;;36.78;16.77;;;1.40;74.50;;;;;;4971529;28;20133;-67
2022/12/15 11:57:34;;;;;;;38.80;16.40;;;1.40;75.00;;;;;;4982914;28;20049;-71
2022/12/15 12:00:07;;;;;;;34.97;14.30;;;1.30;75.10;;;;;;4987541;28;20034;-67
2022/12/15 12:02:47;;;;;;;32.05;14.82;;;1.20;76.30;;;;;;4992261;28;20038;-64
2022/12/15 12:05:37;;;;;;;32.60;14.15;;;1.20;76.70;;;;;;4989855;28;20038;-64
2022/12/15 12:08:24;;;;;;;31.85;15.20;;;1.20;76.70;;;;;;4991518;28;20034;-64
2022/12/15 12:10:53;;;;;;;33.00;14.18;;;1.20;77.20;;;;;;4989356;28;20030;-71
2022/12/15 12:13:39;;;;;;;41.70;18.45;;;1.10;77.80;;;;;;4990900;28;20030;-71
2022/12/15 12:16:35;;;;;;;35.10;14.05;;;1.10;77.80;;;;;;4986516;28;20042;-70
2022/12/15 12:19:22;;;;;;;32.50;14.55;;;1.10;78.50;;;;;;4993768;28;20034;-70
2022/12/15 12:21:50;;;;;;;35.22;14.40;;;1.00;79.20;;;;;;4985859;28;20068;-69
2022/12/15 12:24:40;;;;;;;34.85;15.20;;;1.00;79.80;;;;;;4988812;28;20034;-71
2022/12/15 12:27:24;;;;;;;35.88;17.42;;;1.10;80.70;;;;;;4991223;28;20042;-71
2022/12/15 12:30:02;;;;;;;38.78;15.95;;;1.10;81.30;;;;;;4985317;28;20042;-72
2022/12/15 12:32:47;;;;;;;32.72;15.25;;;1.00;81.50;;;;;;4988089;28;20663;-73
2022/12/15 12:35:25;;;;;;;33.38;15.82;;;0.90;82.80;;;;;;4987266;28;20425;-72
2022/12/15 12:37:55;;;;;;;37.35;15.45;;;0.90;83.10;;;;;;4990684;28;20038;-69
2022/12/15 12:40:23;;;;;;;36.53;15.60;;;0.90;83.40;;;;;;4984717;28;20391;-75
2022/12/15 12:42:53;;;;;;;35.30;15.43;;;0.90;83.30;;;;;;4986298;28;20467;-71
2022/12/15 12:45:25;;;;;;;35.10;14.75;;;1.00;83.50;;;;;;4984567;28;20058;-72
2022/12/15 12:47:54;;;;;;;35.50;13.93;;;1.00;82.70;;;;;;4995624;28;20034;-69
2022/12/15 12:50:23;;;;;;;33.85;15.10;;;1.00;82.80;;;;;;4990280;28;20121;-68
2022/12/15 12:52:57;;;;;;;34.35;14.93;;;1.10;83.20;;;;;;4985544;28;20046;-70
2022/12/15 12:55:31;;;;;;;35.95;15.43;;;1.10;82.60;;;;;;4987907;28;20533;-71
2022/12/15 12:57:57;;;;;;;33.70;13.98;;;1.20;82.60;;;;;;4987343;28;20073;-70
2022/12/15 13:00:28;;;;;;;32.00;14.23;;;1.20;82.80;;;;;;4989676;28;20762;-70
2022/12/15 13:03:16;;;;;;;35.95;15.00;;;1.30;82.70;;;;;;4991972;28;20042;-69
2022/12/15 13:05:43;;;;;;;31.65;14.57;;;1.30;82.80;;;;;;4988912;28;20026;-70
2022/12/15 13:08:09;;;;;;;33.35;14.30;;;1.30;83.10;;;;;;4990544;28;20212;-70
2022/12/15 13:10:39;;;;;;;34.63;14.35;;;1.40;82.80;;;;;;4989046;28;20513;-70
2022/12/15 13:13:17;;;;;;;33.20;14.25;;;1.40;83.20;;;;;;4991318;28;20032;-71
2022/12/15 13:15:46;;;;;;;34.58;14.18;;;1.40;83.50;;;;;;4988823;28;20038;-68
2022/12/15 13:18:14;;;;;;;38.67;14.48;;;1.40;83.80;;;;;;4989561;28;20088;-69
2022/12/15 13:20:41;;;;;;;32.90;14.57;;;1.40;83.80;;;;;;4989925;28;20958;-71
2022/12/15 13:23:22;;;;;;;31.02;12.98;;;1.40;84.10;;;;;;4993624;28;20029;-71
2022/12/15 13:25:57;;;;;;;29.35;13.32;;;1.40;84.10;;;;;;4995968;28;20073;-71
2022/12/15 13:28:35;;;;;;;25.73;13.18;;;1.40;84.50;;;;;;4986620;28;20026;-71
2022/12/15 13:31:19;;;;;;;30.02;13.32;;;1.40;84.10;;;;;;4986865;28;20035;-71
2022/12/15 13:33:54;;;;;;;28.23;13.52;;;1.40;84.30;;;;;;4989419;28;20038;-71
2022/12/15 13:36:38;;;;;;;31.75;14.20;;;1.40;84.40;;;;;;4990238;28;20104;-74
2022/12/15 13:39:16;;;;;;;29.73;13.40;;;1.50;84.30;;;;;;4986366;28;20030;-72
2022/12/15 13:41:43;;;;;;;30.13;14.35;;;1.40;84.00;;;;;;4988317;28;20066;-73
2022/12/15 13:44:20;;;;;;;29.75;12.80;;;1.40;84.10;;;;;;4986892;28;20034;-71
2022/12/15 13:46:47;;;;;;;28.75;12.68;;;1.40;84.40;;;;;;4990323;28;20049;-71
2022/12/15 13:49:15;;;;;;;26.30;12.45;;;1.40;84.30;;;;;;4988387;28;20332;-72
2022/12/15 13:51:43;;;;;;;27.23;13.48;;;1.40;84.60;;;;;;4989683;28;20053;-70
2022/12/15 13:54:22;;;;;;;29.55;13.43;;;1.50;84.40;;;;;;4986527;28;20643;-73
2022/12/15 13:57:05;;;;;;;28.70;13.65;;;1.40;84.00;;;;;;4985960;28;20042;-75
2022/12/15 13:59:46;;;;;;;28.42;13.65;;;1.40;84.30;;;;;;4985752;28;20109;-74
2022/12/15 14:02:28;;;;;;;25.63;12.13;;;1.40;84.50;;;;;;4991534;28;20112;-74
2022/12/15 14:05:24;;;;;;;29.95;13.38;;;1.40;84.40;;;;;;4987696;28;20083;-74
2022/12/15 14:07:53;;;;;;;31.40;12.35;;;1.40;84.70;;;;;;4988633;28;20033;-71
2022/12/15 14:10:40;;;;;;;27.42;12.40;;;1.40;84.60;;;;;;4999983;28;20065;-74
2022/12/15 14:13:26;;;;;;;27.10;13.18;;;1.40;84.60;;;;;;4990881;28;20041;-73
2022/12/15 14:15:55;;;;;;;25.15;11.93;;;1.40;84.50;;;;;;4988256;28;20034;-73
2022/12/15 14:18:24;;;;;;;24.73;12.50;;;1.30;84.60;;;;;;4990309;28;20550;-71
2022/12/15 14:20:50;;;;;;;28.63;12.98;;;1.30;84.60;;;;;;4988379;28;20034;-70
2022/12/15 14:23:19;;;;;;;24.90;12.15;;;1.30;85.20;;;;;;4992270;28;20069;-70
2022/12/15 14:26:07;;;;;;;24.23;12.35;;;1.30;84.60;;;;;;4996914;28;20989;-71
2022/12/15 14:28:37;;;;;;;29.35;12.50;;;1.20;84.60;;;;;;4989696;28;20084;-71
2022/12/15 14:31:10;;;;;;;27.02;12.75;;;1.20;84.70;;;;;;4994231;28;20054;-71
2022/12/15 14:33:39;;;;;;;30.10;13.15;;;1.20;84.50;;;;;;4992918;28;20034;-71
2022/12/15 14:36:09;;;;;;;26.48;12.57;;;1.10;84.80;;;;;;4991607;28;20030;-71
2022/12/15 14:38:43;;;;;;;26.25;13.30;;;1.00;84.70;;;;;;4990769;28;20036;-70
2022/12/15 14:41:23;;;;;;;26.40;12.15;;;1.00;84.70;;;;;;4994674;28;20038;-71
2022/12/15 14:43:51;;;;;;;25.45;11.23;;;0.90;84.60;;;;;;4996601;28;20045;-69
2022/12/15 14:46:21;;;;;;;26.30;11.10;;;0.90;84.50;;;;;;4997598;28;20399;-70
2022/12/15 14:49:08;;;;;;;30.23;13.05;;;0.90;84.70;;;;;;4990323;28;20439;-70
2022/12/15 14:51:41;;;;;;;31.23;12.95;;;0.80;85.20;;;;;;4985445;28;20049;-71
2022/12/15 14:54:28;;;;;;;27.15;13.15;;;0.80;84.90;;;;;;4990783;28;20593;-69
2022/12/15 14:57:13;;;;;;;;;;;0.70;84.80;;;;;;4989020;28;20070;-70
2022/12/15 14:59:43;;;;;;;26.48;11.75;;;0.60;85.40;;;;;;4993073;28;19924;-70
2022/12/15 15:02:28;;;;;;;27.10;12.60;;;0.50;85.50;;;;;;4985821;28;20053;-71
2022/12/15 15:05:02;;;;;;;27.92;13.73;;;0.40;85.60;;;;;;4991399;28;20034;-68
2022/12/15 15:07:28;;;;;;;29.83;13.45;;;0.30;85.80;;;;;;4990067;28;20457;-69
2022/12/15 15:09:55;;;;;;;27.13;13.50;;;0.30;85.80;;;;;;4988138;28;20521;-70
2022/12/15 15:12:24;;;;;;;29.58;12.95;;;0.30;86.00;;;;;;4991316;28;20034;-69
2022/12/15 15:15:16;;;;;;;25.02;11.70;;;0.20;86.60;;;;;;4984590;28;20061;-70